Time;durP1;ratioP1;P1;durP2;ratioP2;P2;SDS_P1;SDS_P2;PMS_P1;PMS_P2;Temp;Humidity;BMP_temperature;BMP_pressure;BME280_temperature;BME280_humidity;BME280_pressure;Samples;Min_cycle;Max_cycle;Signal;HPM_P1;HPM_P2
2023/06/25 00:01:48;;;;;;;24.03;14.07;;;;;;;15.70;85.96;100508.53;4226688;28;20233;-68
2023/06/25 00:04:15;;;;;;;24.27;12.73;;;;;;;15.62;86.42;100503.13;4234986;28;21987;-68
2023/06/25 00:06:42;;;;;;;25.70;14.43;;;;;;;15.61;86.71;100504.13;4228261;28;21211;-70
2023/06/25 00:09:10;;;;;;;24.63;14.07;;;;;;;15.51;86.98;100510.69;4235580;28;20859;-71
2023/06/25 00:11:37;;;;;;;23.93;14.83;;;;;;;15.49;87.42;100498.22;4218952;28;20238;-71
2023/06/25 00:14:04;;;;;;;31.93;14.20;;;;;;;15.40;87.86;100508.34;4209208;28;20242;-73
2023/06/25 00:16:33;;;;;;;27.70;15.00;;;;;;;15.44;87.60;100503.38;4251813;28;20306;-70
2023/06/25 00:19:00;;;;;;;34.10;14.87;;;;;;;15.42;88.08;100506.28;4234848;28;20484;-73
2023/06/25 00:21:27;;;;;;;23.67;14.47;;;;;;;15.33;88.38;100499.16;4227711;28;22181;-71
2023/06/25 00:23:54;;;;;;;25.93;13.97;;;;;;;15.32;88.69;100502.91;4226660;28;20895;-68
2023/06/25 00:26:21;;;;;;;23.73;13.70;;;;;;;15.25;89.36;100497.34;4225938;28;20235;-70
2023/06/25 00:28:47;;;;;;;25.77;14.70;;;;;;;15.27;89.08;100506.19;4226567;28;20243;-70
2023/06/25 00:31:14;;;;;;;24.83;15.37;;;;;;;15.29;89.07;100497.84;4225756;28;21421;-69
2023/06/25 00:33:43;;;;;;;24.37;15.23;;;;;;;15.16;89.91;100495.66;4223545;28;20234;-69
2023/06/25 00:36:10;;;;;;;27.93;15.97;;;;;;;15.21;89.77;100502.31;4229847;28;20789;-70
2023/06/25 00:38:38;;;;;;;27.10;15.70;;;;;;;15.37;88.65;100498.66;4222026;28;20242;-69
2023/06/25 00:41:08;;;;;;;24.97;13.53;;;;;;;15.43;88.56;100494.38;4226651;28;20320;-70
2023/06/25 00:43:40;;;;;;;22.70;14.20;;;;;;;15.44;88.28;100487.00;4227176;28;20239;-68
2023/06/25 00:46:12;;;;;;;21.90;13.30;;;;;;;15.45;88.11;100484.09;4219828;28;20312;-69
2023/06/25 00:48:45;;;;;;;24.37;13.60;;;;;;;15.40;87.80;100483.78;4221296;28;20246;-69
2023/06/25 00:51:16;;;;;;;21.70;12.53;;;;;;;15.56;87.48;100485.56;4223449;28;20274;-70
2023/06/25 00:53:43;;;;;;;21.20;13.03;;;;;;;15.47;87.08;100482.06;4224870;28;20228;-69
2023/06/25 00:56:11;;;;;;;21.60;12.77;;;;;;;15.45;86.68;100489.56;4223142;28;20235;-72
2023/06/25 00:58:39;;;;;;;19.80;12.70;;;;;;;15.54;86.40;100490.38;4234713;28;20239;-69
2023/06/25 01:01:20;;;;;;;18.33;10.67;;;;;;;15.47;85.95;100478.50;4233756;28;20495;-70
2023/06/25 01:03:54;;;;;;;20.13;11.87;;;;;;;15.37;85.50;100473.22;4205402;28;20239;-69
2023/06/25 01:06:29;;;;;;;20.73;10.87;;;;;;;15.28;85.46;100477.88;4222951;28;22706;-69
2023/06/25 01:08:59;;;;;;;20.70;10.20;;;;;;;15.29;84.93;100479.59;4229296;28;20238;-69
2023/06/25 01:11:28;;;;;;;20.37;10.83;;;;;;;15.36;84.41;100479.75;4236666;28;20231;-71
2023/06/25 01:13:55;;;;;;;15.90;9.80;;;;;;;15.29;84.43;100484.19;4233308;28;20260;-70
2023/06/25 01:16:22;;;;;;;16.50;9.43;;;;;;;15.39;83.37;100479.38;4247351;28;20819;-70
2023/06/25 01:18:50;;;;;;;14.50;9.13;;;;;;;15.37;83.11;100475.97;4213701;28;22023;-71
2023/06/25 01:21:31;;;;;;;18.97;8.80;;;;;;;15.42;83.01;100478.16;4232920;28;20231;-69
2023/06/25 01:23:58;;;;;;;16.83;9.77;;;;;;;15.39;83.19;100473.06;4219362;28;20242;-70
2023/06/25 01:26:24;;;;;;;16.27;8.67;;;;;;;15.34;82.61;100485.34;4232264;28;21738;-68
2023/06/25 01:28:55;;;;;;;18.60;9.27;;;;;;;15.30;82.42;100475.84;4224390;28;20411;-67
2023/06/25 01:31:24;;;;;;;15.43;9.13;;;;;;;15.31;82.62;100468.50;4207904;28;20257;-70
2023/06/25 01:33:51;;;;;;;17.43;9.30;;;;;;;15.31;82.27;100468.50;4227729;28;20396;-69
2023/06/25 01:36:18;;;;;;;21.57;9.03;;;;;;;15.33;81.99;100469.16;4243328;28;21063;-71
2023/06/25 01:38:44;;;;;;;15.30;8.83;;;;;;;15.21;82.34;100463.25;4232535;28;23332;-68
2023/06/25 01:41:11;;;;;;;21.33;9.47;;;;;;;15.12;83.01;100469.75;4232855;28;20540;-69
2023/06/25 01:43:37;;;;;;;13.07;7.83;;;;;;;15.19;82.26;100479.81;4229609;28;22945;-68
2023/06/25 01:46:04;;;;;;;20.10;9.47;;;;;;;15.27;82.22;100473.44;4229919;28;20746;-68
2023/06/25 01:48:31;;;;;;;14.63;8.97;;;;;;;15.11;82.61;100478.97;4229377;28;20231;-69
2023/06/25 01:50:58;;;;;;;16.80;8.93;;;;;;;14.92;83.42;100470.19;4238965;28;20339;-69
2023/06/25 01:53:24;;;;;;;15.40;9.37;;;;;;;14.93;83.47;100473.75;4235081;28;21202;-69
2023/06/25 01:55:52;;;;;;;18.13;9.67;;;;;;;14.99;83.23;100473.91;4239623;28;20557;-70
2023/06/25 01:58:19;;;;;;;13.40;7.83;;;;;;;15.02;82.84;100469.97;4239751;28;22684;-72
2023/06/25 02:00:45;;;;;;;17.57;8.57;;;;;;;15.05;82.61;100464.19;4233522;28;20235;-68
2023/06/25 02:03:12;;;;;;;18.07;8.80;;;;;;;15.08;82.58;100472.00;4225966;28;20325;-72
2023/06/25 02:05:38;;;;;;;13.93;8.47;;;;;;;15.04;82.33;100466.03;4218175;28;20291;-69
2023/06/25 02:08:05;;;;;;;19.50;9.00;;;;;;;15.02;82.04;100468.13;4243059;28;20274;-67
2023/06/25 02:10:32;;;;;;;14.73;8.20;;;;;;;14.99;82.37;100463.00;4233640;28;20768;-71
2023/06/25 02:12:59;;;;;;;12.20;7.73;;;;;;;15.04;82.00;100467.94;4230972;28;21634;-70
2023/06/25 02:15:26;;;;;;;16.03;8.73;;;;;;;14.87;82.50;100469.88;4231617;28;20231;-71
2023/06/25 02:17:52;;;;;;;18.87;8.90;;;;;;;14.94;82.21;100467.28;4236547;28;20240;-71
2023/06/25 02:20:19;;;;;;;17.23;8.70;;;;;;;14.96;82.26;100465.22;4237340;28;20268;-69
2023/06/25 02:22:47;;;;;;;12.90;8.03;;;;;;;14.89;82.33;100462.34;4229817;28;20231;-72
2023/06/25 02:25:14;;;;;;;17.43;8.23;;;;;;;14.84;82.31;100451.97;4232922;28;20293;-71
2023/06/25 02:27:41;;;;;;;15.30;8.20;;;;;;;14.74;82.94;100454.06;4234967;28;21178;-69
2023/06/25 02:30:08;;;;;;;12.33;7.93;;;;;;;14.77;82.78;100461.88;4248699;28;20282;-69
2023/06/25 02:32:36;;;;;;;14.30;8.47;;;;;;;14.73;82.63;100457.81;4251838;28;20238;-67
2023/06/25 02:35:03;;;;;;;13.53;7.97;;;;;;;14.71;82.69;100455.25;4263372;28;20311;-71
2023/06/25 02:37:29;;;;;;;17.73;7.90;;;;;;;14.68;82.56;100452.88;4256656;28;20239;-67
2023/06/25 02:39:56;;;;;;;13.47;8.00;;;;;;;14.82;82.56;100456.75;4235466;28;21301;-71
2023/06/25 02:42:23;;;;;;;15.70;8.33;;;;;;;14.85;81.97;100450.09;4245789;28;22668;-68
2023/06/25 02:44:49;;;;;;;12.70;7.73;;;;;;;14.83;81.73;100443.97;4226688;28;20228;-70
2023/06/25 02:47:16;;;;;;;12.30;7.93;;;;;;;14.83;81.72;100453.03;4255594;28;22491;-68
2023/06/25 02:49:43;;;;;;;14.53;8.50;;;;;;;14.84;82.28;100448.41;4242881;28;20943;-71
2023/06/25 02:52:10;;;;;;;16.07;8.13;;;;;;;14.77;82.29;100450.97;4231803;28;21350;-72
2023/06/25 02:54:37;;;;;;;11.87;7.37;;;;;;;14.82;81.76;100447.72;4229380;28;21610;-70
2023/06/25 02:57:04;;;;;;;12.80;8.10;;;;;;;14.85;81.80;100453.66;4231980;28;22923;-71
2023/06/25 02:59:30;;;;;;;17.27;8.43;;;;;;;14.89;81.65;100451.44;4254355;28;20240;-72
2023/06/25 03:01:57;;;;;;;14.47;7.87;;;;;;;14.95;82.08;100453.50;4226999;28;20304;-70
2023/06/25 03:04:24;;;;;;;15.13;7.40;;;;;;;15.09;81.17;100459.22;4228383;28;22476;-69
2023/06/25 03:06:50;;;;;;;13.77;8.17;;;;;;;15.11;80.61;100462.59;4230645;28;20238;-70
2023/06/25 03:09:17;;;;;;;16.70;7.20;;;;;;;15.28;80.98;100455.22;4237035;28;20592;-69
2023/06/25 03:11:44;;;;;;;17.13;7.87;;;;;;;15.40;80.00;100451.06;4222504;28;20227;-73
2023/06/25 03:14:10;;;;;;;16.27;7.83;;;;;;;15.33;79.92;100455.53;4240937;28;22356;-68
2023/06/25 03:16:55;;;;;;;13.60;7.53;;;;;;;15.42;79.89;100456.34;4224266;28;21131;-70
2023/06/25 03:19:21;;;;;;;13.97;7.67;;;;;;;15.59;79.06;100473.47;4236380;28;20250;-67
2023/06/25 03:21:49;;;;;;;16.10;8.43;;;;;;;15.66;79.06;100474.47;4245316;28;20637;-71
2023/06/25 03:24:15;;;;;;;14.53;7.97;;;;;;;15.57;79.25;100476.38;4242959;28;20236;-70
2023/06/25 03:26:42;;;;;;;13.97;7.67;;;;;;;15.55;79.09;100467.53;4227755;28;21339;-72
2023/06/25 03:29:10;;;;;;;16.87;8.70;;;;;;;15.51;79.34;100467.03;4230801;28;20235;-70
2023/06/25 03:31:36;;;;;;;12.27;7.63;;;;;;;15.59;79.46;100468.03;4229196;28;20764;-69
2023/06/25 03:34:03;;;;;;;17.80;8.50;;;;;;;15.77;78.75;100465.00;4225496;28;20273;-70
2023/06/25 03:36:30;;;;;;;15.50;8.40;;;;;;;15.84;78.41;100464.13;4221431;28;20254;-69
2023/06/25 03:38:57;;;;;;;15.03;8.13;;;;;;;15.94;78.16;100477.53;4223779;28;21739;-71
2023/06/25 03:41:24;;;;;;;16.33;7.83;;;;;;;16.09;77.42;100471.25;4237246;28;20235;-70
2023/06/25 03:43:51;;;;;;;11.93;7.40;;;;;;;16.03;78.09;100466.53;4221682;28;21596;-71
2023/06/25 03:46:18;;;;;;;14.27;7.57;;;;;;;16.04;78.17;100465.50;4239221;28;20235;-70
2023/06/25 03:48:44;;;;;;;13.27;7.53;;;;;;;16.15;77.17;100471.41;4228250;28;22359;-70
2023/06/25 03:51:11;;;;;;;16.70;7.40;;;;;;;16.24;76.95;100465.88;4233669;28;20233;-69
2023/06/25 03:53:38;;;;;;;16.90;8.07;;;;;;;16.15;76.85;100459.63;4224974;28;20232;-69
2023/06/25 03:56:05;;;;;;;13.60;7.67;;;;;;;16.14;76.94;100461.50;4227859;28;20282;-70
2023/06/25 03:58:33;;;;;;;14.43;7.93;;;;;;;16.18;76.77;100466.59;4232544;28;20231;-70
2023/06/25 04:01:00;;;;;;;10.67;7.47;;;;;;;16.43;76.70;100456.31;4228282;28;20791;-71
2023/06/25 04:03:27;;;;;;;10.40;7.47;;;;;;;16.62;75.77;100466.69;4224235;28;21776;-70
2023/06/25 04:05:53;;;;;;;12.67;7.70;;;;;;;16.51;76.20;100463.56;4227945;28;20236;-70
2023/06/25 04:08:20;;;;;;;13.90;7.80;;;;;;;16.51;75.81;100477.22;4226031;28;20400;-69
2023/06/25 04:10:47;;;;;;;16.17;7.97;;;;;;;16.55;75.68;100476.66;4229554;28;20257;-69
2023/06/25 04:13:13;;;;;;;12.37;7.90;;;;;;;16.55;75.65;100481.28;4220484;28;20264;-73
2023/06/25 04:15:40;;;;;;;17.13;8.90;;;;;;;16.05;77.95;100467.22;4225918;28;20421;-70
2023/06/25 04:18:07;;;;;;;14.73;8.23;;;;;;;16.10;78.07;100481.16;4230789;28;20421;-70
2023/06/25 04:20:33;;;;;;;13.90;8.00;;;;;;;16.20;77.70;100475.47;4227058;28;21554;-69
2023/06/25 04:23:00;;;;;;;17.20;8.87;;;;;;;16.25;78.30;100476.59;4234414;28;20231;-71
2023/06/25 04:25:26;;;;;;;15.30;9.50;;;;;;;16.11;78.04;100486.47;4237509;28;26879;-68
2023/06/25 04:27:54;;;;;;;15.33;8.90;;;;;;;16.07;78.39;100484.28;4230802;28;21998;-71
2023/06/25 04:30:21;;;;;;;11.90;7.57;;;;;;;16.25;78.23;100484.78;4247402;28;20222;-67
2023/06/25 04:32:49;;;;;;;12.97;8.00;;;;;;;16.62;77.18;100490.44;4245870;28;20335;-70
2023/06/25 04:35:17;;;;;;;17.10;8.77;;;;;;;16.40;77.43;100484.84;4234034;28;20239;-69
2023/06/25 04:37:43;;;;;;;16.50;8.93;;;;;;;16.57;76.35;100477.34;4235353;28;21818;-70
2023/06/25 04:40:11;;;;;;;17.43;8.97;;;;;;;16.12;78.62;100479.97;4239098;28;20276;-73
2023/06/25 04:42:37;;;;;;;20.37;9.67;;;;;;;16.01;79.16;100472.19;4222066;28;20297;-69
2023/06/25 04:45:05;;;;;;;17.60;9.13;;;;;;;16.07;79.29;100468.72;4223093;28;20308;-68
2023/06/25 04:47:32;;;;;;;19.63;10.33;;;;;;;15.87;79.86;100464.78;4227393;28;20232;-66
2023/06/25 04:49:59;;;;;;;18.97;10.13;;;;;;;16.07;79.39;100465.16;4235410;28;20232;-70
2023/06/25 04:52:25;;;;;;;16.80;8.93;;;;;;;16.53;78.07;100466.97;4241699;28;21447;-69
2023/06/25 04:54:52;;;;;;;18.47;9.77;;;;;;;16.60;76.94;100470.66;4228518;28;26236;-69
2023/06/25 04:57:18;;;;;;;17.33;9.70;;;;;;;16.49;77.61;100471.94;4231255;28;20249;-69
2023/06/25 04:59:45;;;;;;;14.80;9.30;;;;;;;16.69;77.68;100472.25;4234290;28;20685;-69
2023/06/25 05:02:11;;;;;;;16.87;9.40;;;;;;;16.72;77.50;100471.91;4233697;28;20240;-70
2023/06/25 05:04:38;;;;;;;17.17;9.67;;;;;;;17.03;76.27;100472.78;4220348;28;20231;-69
2023/06/25 05:07:05;;;;;;;16.57;8.67;;;;;;;17.08;75.55;100468.44;4229763;28;20455;-70
2023/06/25 05:09:31;;;;;;;18.60;10.10;;;;;;;17.09;76.79;100463.81;4244470;28;20301;-69
2023/06/25 05:11:58;;;;;;;25.07;10.03;;;;;;;17.39;75.46;100469.25;4221373;28;20270;-67
2023/06/25 05:14:25;;;;;;;17.70;9.50;;;;;;;17.62;75.02;100470.97;4246844;28;20315;-69
2023/06/25 05:16:51;;;;;;;21.33;10.23;;;;;;;17.80;73.97;100468.69;4231194;28;20683;-69
2023/06/25 05:19:18;;;;;;;18.80;10.23;;;;;;;17.74;73.76;100458.50;4244306;28;25549;-72
2023/06/25 05:21:45;;;;;;;19.23;9.40;;;;;;;18.05;72.96;100460.13;4242871;28;21040;-70
2023/06/25 05:24:12;;;;;;;17.77;9.40;;;;;;;18.16;73.33;100456.00;4270662;28;20234;-74
2023/06/25 05:26:38;;;;;;;15.10;8.47;;;;;;;19.01;70.51;100461.47;4245844;28;20614;-72
2023/06/25 05:29:05;;;;;;;15.30;9.23;;;;;;;19.19;68.88;100462.81;4221626;28;22148;-73
2023/06/25 05:31:32;;;;;;;19.33;8.87;;;;;;;19.47;67.97;100471.84;4246433;28;20650;-74
2023/06/25 05:33:58;;;;;;;19.80;8.30;;;;;;;20.36;65.18;100471.81;4248689;28;20619;-74
2023/06/25 05:36:25;;;;;;;16.93;8.67;;;;;;;20.50;64.22;100472.66;4231092;28;22182;-70
2023/06/25 05:38:52;;;;;;;13.27;8.07;;;;;;;21.56;62.28;100480.88;4244469;28;20271;-69
2023/06/25 05:41:19;;;;;;;15.30;8.33;;;;;;;22.16;59.28;100468.66;4240692;28;20835;-74
2023/06/25 05:43:45;;;;;;;14.90;8.27;;;;;;;23.10;57.02;100476.13;4252222;28;21812;-71
2023/06/25 05:46:13;;;;;;;12.50;7.60;;;;;;;23.46;54.81;100468.03;4238233;28;20235;-70
2023/06/25 05:48:41;;;;;;;13.53;8.30;;;;;;;22.84;56.81;100474.47;4235355;28;20242;-71
2023/06/25 05:51:07;;;;;;;13.10;7.20;;;;;;;23.59;55.27;100470.66;4258435;28;21390;-74
2023/06/25 05:53:43;;;;;;;16.57;7.83;;;;;;;23.83;53.91;100477.13;4222947;28;20421;-71
2023/06/25 05:56:11;;;;;;;15.00;8.17;;;;;;;24.11;53.37;100464.59;4236321;28;21613;-72
2023/06/25 05:58:42;;;;;;;12.20;7.10;;;;;;;25.25;49.80;100464.50;4260777;28;20367;-69
2023/06/25 06:01:13;;;;;;;13.70;7.17;;;;;;;24.27;51.81;100465.00;4220039;28;21640;-71
2023/06/25 06:03:39;;;;;;;11.13;6.90;;;;;;;24.15;52.53;100459.44;4242760;28;20241;-72
2023/06/25 06:06:06;;;;;;;9.07;6.22;;;;;;;25.18;50.87;100470.19;4231228;28;21156;-70
2023/06/25 06:08:33;;;;;;;15.67;7.93;;;;;;;26.11;48.56;100458.16;4237801;28;20341;-71
2023/06/25 06:11:02;;;;;;;16.23;8.02;;;;;;;24.32;52.05;100462.38;4230327;28;20232;-68
2023/06/25 06:13:28;;;;;;;14.80;7.97;;;;;;;24.56;51.25;100463.22;4238632;28;21663;-70
2023/06/25 06:15:55;;;;;;;12.80;7.23;;;;;;;26.43;46.64;100460.38;4230025;28;20234;-70
2023/06/25 06:18:21;;;;;;;12.73;7.03;;;;;;;26.43;46.13;100463.16;4233241;28;20585;-71
2023/06/25 06:20:49;;;;;;;15.17;7.20;;;;;;;25.36;49.16;100465.56;4240216;28;20235;-71
2023/06/25 06:23:15;;;;;;;12.00;6.53;;;;;;;27.36;44.07;100467.28;4272480;28;20316;-72
2023/06/25 06:25:42;;;;;;;10.80;6.07;;;;;;;26.73;45.83;100462.81;4220451;28;22264;-70
2023/06/25 06:28:08;;;;;;;9.37;5.90;;;;;;;27.55;44.21;100458.63;4239634;28;20234;-70
2023/06/25 06:30:37;;;;;;;12.40;6.32;;;;;;;27.75;42.81;100466.34;4239723;28;20683;-69
2023/06/25 06:33:03;;;;;;;9.07;5.22;;;;;;;26.91;44.28;100469.19;4239236;28;21280;-71
2023/06/25 06:35:30;;;;;;;10.95;5.78;;;;;;;28.71;41.32;100475.03;4230253;28;20239;-67
2023/06/25 06:37:57;;;;;;;8.32;5.28;;;;;;;28.44;40.84;100471.19;4230754;28;20244;-70
2023/06/25 06:40:23;;;;;;;8.35;5.22;;;;;;;30.70;37.16;100469.50;4234373;28;20344;-68
2023/06/25 06:42:50;;;;;;;8.45;5.65;;;;;;;29.14;40.24;100464.72;4245761;28;20525;-68
2023/06/25 06:45:17;;;;;;;11.10;5.90;;;;;;;29.93;38.49;100467.53;4231785;28;20301;-70
2023/06/25 06:47:44;;;;;;;9.15;5.53;;;;;;;29.97;37.88;100468.66;4241341;28;20792;-69
2023/06/25 06:50:10;;;;;;;11.20;5.78;;;;;;;29.31;39.02;100467.31;4229548;28;22107;-70
2023/06/25 06:52:37;;;;;;;9.63;5.55;;;;;;;28.73;40.42;100467.25;4223741;28;20470;-72
2023/06/25 06:55:04;;;;;;;11.32;6.30;;;;;;;27.57;42.74;100464.75;4232003;28;20234;-68
2023/06/25 06:57:31;;;;;;;11.25;5.90;;;;;;;27.24;44.14;100466.56;4229711;28;20231;-69
2023/06/25 06:59:57;;;;;;;8.77;5.93;;;;;;;29.58;39.53;100471.88;4228586;28;20227;-69
2023/06/25 07:02:24;;;;;;;10.35;6.47;;;;;;;30.65;36.96;100464.75;4228003;28;21303;-65
2023/06/25 07:04:51;;;;;;;7.45;4.97;;;;;;;29.34;39.12;100469.59;4225482;28;21845;-67
2023/06/25 07:07:18;;;;;;;10.43;5.50;;;;;;;30.48;37.34;100461.38;4228226;28;20234;-68
2023/06/25 07:09:51;;;;;;;7.75;4.90;;;;;;;31.92;34.15;100465.69;4227410;28;21827;-66
2023/06/25 07:12:18;;;;;;;7.93;4.90;;;;;;;30.48;36.95;100461.38;4231324;28;20372;-67
2023/06/25 07:14:46;;;;;;;10.32;5.15;;;;;;;28.69;40.07;100466.09;4231140;28;20227;-68
2023/06/25 07:17:12;;;;;;;8.63;4.75;;;;;;;30.30;37.48;100469.22;4215887;28;20866;-66
2023/06/25 07:19:39;;;;;;;8.52;5.15;;;;;;;29.91;38.13;100466.97;4231262;28;21182;-73
2023/06/25 07:22:05;;;;;;;8.93;4.82;;;;;;;29.27;38.16;100446.63;4233678;28;21502;-67
2023/06/25 07:24:32;;;;;;;8.52;5.13;;;;;;;28.82;38.67;100451.72;4236056;28;22180;-66
2023/06/25 07:26:59;;;;;;;11.18;5.15;;;;;;;29.52;38.17;100454.31;4226783;28;21735;-69
2023/06/25 07:29:27;;;;;;;9.77;5.80;;;;;;;27.58;42.56;100449.75;4241624;28;20269;-69
2023/06/25 07:31:54;;;;;;;8.50;5.20;;;;;;;27.83;40.51;100455.59;4226564;28;20224;-69
2023/06/25 07:34:21;;;;;;;7.13;5.07;;;;;;;27.09;43.43;100442.19;4233257;28;23815;-70
2023/06/25 07:36:48;;;;;;;9.85;5.50;;;;;;;26.15;45.85;100456.59;4229497;28;20238;-46
2023/06/25 07:39:26;;;;;;;9.85;5.07;;;;;;;26.85;44.08;100447.97;4231233;28;20235;-47
2023/06/25 07:41:53;;;;;;;10.20;4.88;;;;;;;26.33;45.03;100444.41;4215927;28;20239;-70
2023/06/25 07:44:20;;;;;;;8.02;4.90;;;;;;;27.48;42.98;100442.97;4230053;28;20286;-70
2023/06/25 07:47:08;;;;;;;8.20;5.82;;;;;;;27.38;43.45;100442.81;4225523;28;20486;-48
2023/06/25 07:49:35;;;;;;;8.10;5.32;;;;;;;26.29;44.60;100437.66;4236402;28;20246;-69
2023/06/25 07:52:03;;;;;;;12.57;5.60;;;;;;;26.65;44.80;100431.84;4230570;28;20236;-71
2023/06/25 07:54:29;;;;;;;9.73;5.30;;;;;;;26.52;44.83;100430.25;4231362;28;20476;-73
2023/06/25 07:56:56;;;;;;;10.30;5.57;;;;;;;26.14;45.45;100423.53;4250531;28;20255;-70
2023/06/25 07:59:23;;;;;;;8.13;4.80;;;;;;;27.38;43.30;100415.03;4220318;28;20239;-69
2023/06/25 08:01:51;;;;;;;9.52;5.40;;;;;;;26.27;44.64;100426.00;4240084;28;20235;-69
2023/06/25 08:04:19;;;;;;;10.05;5.50;;;;;;;26.46;44.79;100425.72;4236412;28;20270;-69
2023/06/25 08:06:46;;;;;;;8.60;5.50;;;;;;;26.34;45.02;100425.81;4223728;28;25661;-70
2023/06/25 08:09:12;;;;;;;9.18;5.32;;;;;;;25.92;45.98;100425.09;4220128;28;20301;-72
2023/06/25 08:11:39;;;;;;;8.60;5.32;;;;;;;27.21;43.08;100426.22;4236400;28;20231;-70
2023/06/25 08:14:06;;;;;;;8.50;5.30;;;;;;;27.14;43.30;100440.34;4228112;28;21411;-68
2023/06/25 08:16:32;;;;;;;7.07;5.30;;;;;;;26.58;44.05;100426.47;4233081;28;20391;-68
2023/06/25 08:19:16;;;;;;;9.05;5.13;;;;;;;25.69;46.59;100434.38;4233747;28;21338;-72
2023/06/25 08:21:43;;;;;;;9.63;5.75;;;;;;;25.64;46.49;100439.81;4235093;28;20235;-67
2023/06/25 08:24:10;;;;;;;13.47;5.60;;;;;;;26.53;44.55;100432.78;4225421;28;20333;-65
2023/06/25 08:26:37;;;;;;;7.87;5.17;;;;;;;26.70;43.62;100423.59;4232326;28;20626;-70
2023/06/25 08:29:04;;;;;;;8.05;5.38;;;;;;;26.82;42.81;100426.25;4226748;28;20240;-72
2023/06/25 08:31:31;;;;;;;10.73;5.57;;;;;;;26.08;43.33;100426.22;4233913;28;20619;-74
2023/06/25 08:33:57;;;;;;;7.87;5.17;;;;;;;26.66;42.27;100428.78;4211191;28;21376;-71
2023/06/25 08:36:24;;;;;;;7.40;4.88;;;;;;;27.10;42.31;100425.25;4231700;28;21264;-71
2023/06/25 08:38:51;;;;;;;7.38;4.75;;;;;;;26.49;43.19;100423.25;4235345;28;20274;-73
2023/06/25 08:41:17;;;;;;;14.10;5.25;;;;;;;26.98;41.73;100425.38;4242860;28;20235;-71
2023/06/25 08:43:45;;;;;;;7.57;5.53;;;;;;;27.27;41.41;100418.78;4246538;28;22460;-70
2023/06/25 08:46:13;;;;;;;11.13;4.90;;;;;;;27.10;40.52;100422.47;4232519;28;20337;-72
2023/06/25 08:48:41;;;;;;;7.40;4.85;;;;;;;26.65;42.08;100416.03;4226980;28;20232;-70
2023/06/25 08:51:12;;;;;;;8.65;4.72;;;;;;;25.75;43.88;100421.44;4237557;28;20374;-72
2023/06/25 08:53:39;;;;;;;11.52;4.97;;;;;;;25.24;44.14;100419.34;4225914;28;20814;-75
2023/06/25 08:56:06;;;;;;;8.00;5.20;;;;;;;25.22;44.57;100413.19;4233408;28;20321;-74
2023/06/25 08:58:35;;;;;;;9.03;4.80;;;;;;;25.24;43.44;100418.47;4252257;28;20231;-74
2023/06/25 09:01:03;;;;;;;8.60;4.63;;;;;;;24.66;44.75;100421.09;4261512;28;20728;-73
2023/06/25 09:03:30;;;;;;;9.57;4.80;;;;;;;25.48;43.53;100413.75;4235350;28;20224;-74
2023/06/25 09:05:57;;;;;;;9.53;4.90;;;;;;;26.20;43.17;100417.81;4233911;28;20257;-75
2023/06/25 09:08:25;;;;;;;8.77;5.33;;;;;;;25.96;42.87;100411.56;4239728;28;20842;-71
2023/06/25 09:10:53;;;;;;;7.90;5.43;;;;;;;25.31;45.35;100421.97;4233059;28;21499;-73
2023/06/25 09:13:23;;;;;;;8.13;5.17;;;;;;;26.25;42.68;100419.84;4226954;28;20239;-70
2023/06/25 09:15:49;;;;;;;6.50;4.83;;;;;;;26.22;41.04;100412.00;4217434;28;21259;-71
2023/06/25 09:18:21;;;;;;;9.00;4.37;;;;;;;26.29;41.08;100422.97;4251638;28;20252;-72
2023/06/25 09:20:48;;;;;;;8.27;4.83;;;;;;;26.89;40.75;100415.81;4238419;28;20627;-73
2023/06/25 09:23:23;;;;;;;10.20;4.43;;;;;;;26.79;40.06;100415.69;4230496;28;20240;-75
2023/06/25 09:25:51;;;;;;;7.23;4.73;;;;;;;26.59;39.40;100417.03;4245484;28;21569;-75
2023/06/25 09:28:18;;;;;;;10.67;4.73;;;;;;;26.54;39.60;100408.63;4221240;28;20232;-71
2023/06/25 09:30:45;;;;;;;9.73;4.37;;;;;;;27.13;38.78;100421.13;4214436;28;20294;-77
2023/06/25 09:33:12;;;;;;;9.03;4.33;;;;;;;27.28;36.98;100412.16;4211234;28;20236;-72
2023/06/25 09:35:39;;;;;;;8.13;5.00;;;;;;;26.98;38.45;100413.44;4230028;28;25296;-75
2023/06/25 09:38:06;;;;;;;9.40;4.40;;;;;;;26.94;38.69;100409.47;4232470;28;20233;-75
2023/06/25 09:40:33;;;;;;;7.80;4.88;;;;;;;26.42;39.72;100398.47;4221517;28;20239;-75
2023/06/25 09:43:05;;;;;;;8.95;4.55;;;;;;;26.22;40.36;100406.47;4237248;28;20269;-75
2023/06/25 09:45:32;;;;;;;9.40;4.75;;;;;;;26.93;38.83;100397.53;4234819;28;20277;-79
2023/06/25 09:48:01;;;;;;;10.40;4.93;;;;;;;26.42;40.17;100392.94;4228190;28;20345;-78
2023/06/25 09:50:39;;;;;;;6.00;4.33;;;;;;;25.76;41.49;100387.91;4358541;28;21747;-71
2023/06/25 09:53:16;;;;;;;8.50;4.40;;;;;;;26.79;39.31;100385.97;4496095;28;20226;-73
2023/06/25 09:55:55;;;;;;;6.70;4.47;;;;;;;27.13;38.01;100360.00;4494711;28;20324;-77
2023/06/25 09:58:24;;;;;;;7.33;3.97;;;;;;;27.58;36.85;100383.03;4240392;28;21193;-75
2023/06/25 10:00:51;;;;;;;11.00;4.30;;;;;;;27.78;37.08;100374.06;4210514;28;20237;-74
2023/06/25 10:03:18;;;;;;;9.30;4.40;;;;;;;27.00;37.69;100378.75;4233506;28;20394;-76
2023/06/25 10:05:46;;;;;;;7.40;4.70;;;;;;;26.42;38.50;100378.19;4227434;28;26994;-77
2023/06/25 10:08:12;;;;;;;8.13;4.43;;;;;;;26.10;39.89;100363.03;4228581;28;20239;-75
2023/06/25 10:10:39;;;;;;;11.37;4.40;;;;;;;26.72;39.26;100371.41;4204162;28;20384;-73
2023/06/25 10:13:06;;;;;;;11.03;4.83;;;;;;;26.78;38.29;100366.78;4205352;28;20278;-75
2023/06/25 10:15:35;;;;;;;7.07;4.70;;;;;;;26.33;40.38;100371.38;4211077;28;20232;-76
2023/06/25 10:18:04;;;;;;;6.80;4.60;;;;;;;26.52;39.82;100374.72;4205613;28;21087;-73
2023/06/25 10:20:37;;;;;;;9.10;4.70;;;;;;;26.51;39.92;100373.06;4215630;28;20239;-69
2023/06/25 10:23:07;;;;;;;10.70;4.33;;;;;;;26.54;40.32;100378.09;4223296;28;20370;-74
2023/06/25 10:25:37;;;;;;;9.40;5.10;;;;;;;26.35;40.11;100371.97;4200442;28;20233;-76
2023/06/25 10:28:05;;;;;;;11.50;4.38;;;;;;;26.33;39.95;100379.72;4219227;28;21141;-74
2023/06/25 10:30:47;;;;;;;10.57;4.47;;;;;;;26.34;39.95;100384.19;4208783;28;20458;-72
2023/06/25 10:33:15;;;;;;;6.90;4.40;;;;;;;26.04;40.28;100377.00;4202373;28;20450;-77
2023/06/25 10:35:43;;;;;;;9.17;4.67;;;;;;;26.14;41.18;100373.59;4213035;28;20575;-74
2023/06/25 10:38:10;;;;;;;7.60;4.73;;;;;;;25.77;43.07;100366.59;4222120;28;20240;-76
2023/06/25 10:40:39;;;;;;;10.10;5.03;;;;;;;25.73;44.06;100376.50;4191259;28;20624;-73
2023/06/25 10:43:06;;;;;;;7.03;4.90;;;;;;;26.12;42.29;100362.75;4216960;28;22821;-73
2023/06/25 10:45:33;;;;;;;9.73;4.83;;;;;;;26.75;39.52;100362.56;4213394;28;20276;-74
2023/06/25 10:48:19;;;;;;;7.17;5.20;;;;;;;26.91;40.21;100374.72;4205373;28;21331;-76
2023/06/25 10:50:45;;;;;;;6.07;4.40;;;;;;;26.59;40.22;100369.81;4219768;28;20607;-73
2023/06/25 10:53:15;;;;;;;6.40;4.23;;;;;;;26.69;39.72;100361.66;4224849;28;20240;-75
2023/06/25 10:55:46;;;;;;;7.07;5.07;;;;;;;25.60;41.07;100361.03;4232089;28;20235;-76
2023/06/25 10:58:17;;;;;;;9.07;4.73;;;;;;;25.83;40.99;100368.38;4237656;28;21315;-75
2023/06/25 11:00:44;;;;;;;8.70;4.87;;;;;;;26.36;40.09;100363.41;4203507;28;21060;-75
2023/06/25 11:03:12;;;;;;;10.00;5.17;;;;;;;25.84;41.39;100370.03;4208915;28;20341;-75
2023/06/25 11:05:43;;;;;;;8.43;4.90;;;;;;;25.21;42.44;100369.97;4233103;28;20231;-75
2023/06/25 11:08:12;;;;;;;8.83;4.97;;;;;;;24.98;44.43;100370.91;4235845;28;20239;-75
2023/06/25 11:10:40;;;;;;;10.43;5.13;;;;;;;25.55;44.25;100372.00;4229783;28;20235;-73
2023/06/25 11:13:11;;;;;;;9.80;4.93;;;;;;;25.12;44.53;100366.75;4233011;28;20236;-74
2023/06/25 11:15:40;;;;;;;9.67;5.07;;;;;;;25.38;44.55;100374.72;4242616;28;20318;-72
2023/06/25 11:18:07;;;;;;;10.10;4.83;;;;;;;25.43;43.78;100360.97;4226255;28;20240;-76
2023/06/25 11:20:35;;;;;;;5.67;4.50;;;;;;;25.44;43.25;100351.59;4251187;28;20231;-74
2023/06/25 11:23:02;;;;;;;8.98;4.82;;;;;;;25.19;42.71;100360.22;4242001;28;25167;-74